Time;durP1;ratioP1;P1;durP2;ratioP2;P2;SDS_P1;SDS_P2;PMS_P1;PMS_P2;Temp;Humidity;BMP_temperature;BMP_pressure;BME280_temperature;BME280_humidity;BME280_pressure;Samples;Min_cycle;Max_cycle;Signal;HPM_P1;HPM_P2
2021/03/03 00:00:31;;;;;;;17.80;10.17;;;;;;;5.44;54.11;96864.09;5013324;28;20199;-77
2021/03/03 00:02:57;;;;;;;17.30;9.77;;;;;;;5.52;54.16;96868.84;5014640;28;20179;-77
2021/03/03 00:05:22;;;;;;;18.27;10.60;;;;;;;5.50;53.80;96870.69;5000098;28;20174;-77
2021/03/03 00:07:47;;;;;;;18.20;10.87;;;;;;;5.48;54.31;96872.47;5033215;28;20187;-76
2021/03/03 00:10:13;;;;;;;19.13;11.27;;;;;;;5.45;54.47;96873.50;5032807;28;20226;-76
2021/03/03 00:12:38;;;;;;;19.47;10.37;;;;;;;5.54;54.67;96870.41;5034017;28;20236;-77
2021/03/03 00:15:04;;;;;;;19.20;11.23;;;;;;;5.51;55.08;96874.91;5021435;28;20558;-77
2021/03/03 00:17:29;;;;;;;20.67;11.33;;;;;;;5.45;55.40;96860.59;5013074;28;20276;-77
2021/03/03 00:19:55;;;;;;;20.10;11.30;;;;;;;5.33;55.86;96867.28;5012942;28;20242;-76
2021/03/03 00:22:20;;;;;;;19.27;10.83;;;;;;;5.46;55.65;96859.69;4996385;28;20176;-77
2021/03/03 00:24:45;;;;;;;21.63;11.13;;;;;;;5.49;55.06;96856.13;5016611;28;20234;-77
2021/03/03 00:27:11;;;;;;;17.60;9.83;;;;;;;5.50;55.04;96852.63;5033934;28;20261;-77
2021/03/03 00:29:36;;;;;;;22.27;11.33;;;;;;;5.39;55.49;96861.78;5032686;28;20623;-77
2021/03/03 00:32:01;;;;;;;18.60;10.30;;;;;;;5.32;55.82;96855.31;5032628;28;20189;-77
2021/03/03 00:34:27;;;;;;;21.37;10.57;;;;;;;5.39;55.81;96846.34;5032203;28;20229;-76
2021/03/03 00:36:52;;;;;;;22.40;11.37;;;;;;;5.48;55.00;96854.44;5017616;28;20194;-77
2021/03/03 00:39:17;;;;;;;19.50;10.63;;;;;;;5.61;54.09;96852.88;4995876;28;20222;-77
2021/03/03 00:41:43;;;;;;;19.60;10.60;;;;;;;5.62;54.34;96842.47;5012639;28;20592;-77
2021/03/03 00:44:08;;;;;;;20.80;10.70;;;;;;;5.76;53.34;96841.72;4996301;28;20210;-76
2021/03/03 00:46:33;;;;;;;17.37;10.70;;;;;;;5.86;52.51;96842.84;5000069;28;20179;-77
2021/03/03 00:48:59;;;;;;;18.27;9.77;;;;;;;6.01;51.31;96838.59;5032705;28;20210;-76
2021/03/03 00:51:24;;;;;;;20.30;9.37;;;;;;;6.50;49.18;96835.72;5032272;28;20175;-76
2021/03/03 00:53:49;;;;;;;17.37;8.93;;;;;;;6.60;48.56;96841.16;5033262;28;20190;-77
2021/03/03 00:56:15;;;;;;;19.00;9.57;;;;;;;6.52;49.43;96839.88;5031921;28;20178;-77
2021/03/03 00:58:40;;;;;;;16.03;9.10;;;;;;;6.45;49.44;96838.59;5031676;28;20190;-76
2021/03/03 01:01:05;;;;;;;19.23;9.30;;;;;;;6.53;49.17;96838.09;5015455;28;20229;-76
2021/03/03 01:03:31;;;;;;;17.10;9.73;;;;;;;6.66;48.47;96851.97;5032019;28;20176;-76
2021/03/03 01:05:56;;;;;;;17.87;10.07;;;;;;;6.71;48.43;96846.50;5031774;28;20800;-76
2021/03/03 01:08:21;;;;;;;18.13;9.83;;;;;;;6.88;47.27;96843.72;5021638;28;20187;-77
2021/03/03 01:10:47;;;;;;;17.33;9.43;;;;;;;7.05;46.51;96832.38;5013070;28;20607;-77
2021/03/03 01:13:12;;;;;;;14.70;8.87;;;;;;;6.87;47.19;96834.34;4995635;28;20241;-77
2021/03/03 01:15:37;;;;;;;17.83;9.23;;;;;;;6.82;47.24;96836.38;5011802;28;20175;-76
2021/03/03 01:18:03;;;;;;;20.37;9.80;;;;;;;7.07;46.44;96833.97;5013573;28;20265;-77
2021/03/03 01:20:30;;;;;;;16.60;9.00;;;;;;;6.89;46.91;96834.22;5031261;28;20618;-76
2021/03/03 01:22:55;;;;;;;16.07;9.97;;;;;;;6.88;47.05;96841.16;5031648;28;20630;-77
2021/03/03 01:25:20;;;;;;;13.83;8.97;;;;;;;6.74;47.50;96836.84;5014916;28;20206;-76
2021/03/03 01:27:46;;;;;;;16.90;9.13;;;;;;;6.57;48.22;96831.84;5015067;28;20211;-76
2021/03/03 01:30:12;;;;;;;17.37;9.23;;;;;;;6.51;48.69;96830.47;5017563;28;20207;-77
2021/03/03 01:32:37;;;;;;;16.90;8.63;;;;;;;6.55;48.47;96838.88;5011646;28;20175;-77
2021/03/03 01:35:03;;;;;;;13.47;8.73;;;;;;;6.42;48.91;96837.94;4995058;28;20210;-77
2021/03/03 01:37:28;;;;;;;16.60;8.90;;;;;;;6.37;48.36;96827.88;5013235;28;20555;-76
2021/03/03 01:39:53;;;;;;;16.50;8.67;;;;;;;6.31;49.47;96824.84;5018210;28;20190;-77
2021/03/03 01:42:18;;;;;;;16.00;9.07;;;;;;;6.12;49.55;96817.34;5031324;28;20175;-77
2021/03/03 01:44:44;;;;;;;16.00;9.30;;;;;;;5.96;50.06;96820.81;5030972;28;20178;-77
2021/03/03 01:47:09;;;;;;;15.17;7.50;;;;;;;5.82;50.88;96817.31;5031127;28;20332;-77
2021/03/03 01:49:34;;;;;;;13.40;7.70;;;;;;;5.67;51.08;96825.00;5030991;28;20199;-76
2021/03/03 01:52:00;;;;;;;15.83;8.87;;;;;;;5.61;51.33;96824.53;5028602;28;20178;-77
2021/03/03 01:54:25;;;;;;;14.23;7.93;;;;;;;5.53;51.55;96822.38;5032150;28;20305;-76
2021/03/03 01:56:51;;;;;;;13.50;7.57;;;;;;;5.42;52.06;96814.41;5030942;28;20170;-77
2021/03/03 01:59:16;;;;;;;11.60;7.60;;;;;;;5.26;52.65;96824.72;5030674;28;20210;-77
2021/03/03 02:01:41;;;;;;;12.23;7.33;;;;;;;5.10;53.04;96818.75;5022690;28;20183;-76
2021/03/03 02:04:07;;;;;;;14.00;7.70;;;;;;;5.03;53.79;96817.41;5010982;28;20545;-76
2021/03/03 02:06:45;;;;;;;13.40;7.07;;;;;;;4.98;53.67;96819.41;5011138;28;20309;-76
2021/03/03 02:09:10;;;;;;;11.07;7.60;;;;;;;4.96;53.39;96816.09;5011090;28;20186;-77
2021/03/03 02:11:56;;;;;;;13.97;6.83;;;;;;;5.00;53.04;96810.69;5013181;28;20182;-76
2021/03/03 02:14:25;;;;;;;14.80;7.40;;;;;;;4.97;52.95;96810.88;5010757;28;20274;-76
2021/03/03 02:16:51;;;;;;;13.93;8.00;;;;;;;4.93;53.36;96819.66;4994610;28;20187;-76
2021/03/03 02:19:23;;;;;;;13.03;7.23;;;;;;;4.91;53.19;96824.06;5010844;28;20663;-76
2021/03/03 02:21:56;;;;;;;14.93;7.17;;;;;;;4.91;53.44;96824.06;5010864;28;20229;-76
2021/03/03 02:24:23;;;;;;;13.37;7.33;;;;;;;4.93;52.95;96829.94;5010456;28;20554;-76
2021/03/03 02:26:49;;;;;;;13.37;7.87;;;;;;;4.94;52.87;96823.88;5010785;28;20190;-76
2021/03/03 02:29:18;;;;;;;11.17;7.00;;;;;;;4.98;53.00;96825.41;5010594;28;20203;-76
2021/03/03 02:31:45;;;;;;;15.77;7.10;;;;;;;4.96;52.89;96821.25;5010853;28;20175;-76
2021/03/03 02:34:12;;;;;;;12.60;6.20;;;;;;;4.90;53.03;96819.00;5023320;28;20293;-76
2021/03/03 02:36:38;;;;;;;13.43;7.07;;;;;;;4.78;53.29;96813.59;5030408;28;20184;-76
2021/03/03 02:39:05;;;;;;;10.37;6.53;;;;;;;4.66;54.11;96814.22;5030384;28;20685;-77
2021/03/03 02:41:31;;;;;;;9.93;6.70;;;;;;;4.54;55.37;96812.31;5031942;28;20182;-77
2021/03/03 02:43:58;;;;;;;10.23;5.87;;;;;;;4.44;55.69;96798.25;5024873;28;20230;-77
2021/03/03 02:46:24;;;;;;;10.43;7.13;;;;;;;4.32;56.51;96810.00;4994123;28;20218;-76
2021/03/03 02:48:50;;;;;;;12.27;6.60;;;;;;;4.27;56.66;96806.84;5010802;28;20212;-76
2021/03/03 02:51:15;;;;;;;10.97;6.87;;;;;;;4.20;56.80;96802.91;4994135;28;20749;-76
2021/03/03 02:53:41;;;;;;;11.37;6.50;;;;;;;4.17;56.69;96809.06;5011652;28;20199;-76
2021/03/03 02:56:06;;;;;;;10.17;5.70;;;;;;;4.11;57.40;96793.94;5028554;28;20326;-77
2021/03/03 02:58:32;;;;;;;10.77;5.97;;;;;;;4.07;57.02;96796.75;5013844;28;20614;-76
2021/03/03 03:01:01;;;;;;;10.50;5.80;;;;;;;3.99;57.47;96789.41;5030225;28;20205;-76
2021/03/03 03:03:39;;;;;;;12.30;5.70;;;;;;;3.89;57.91;96786.47;5033279;28;20202;-76
2021/03/03 03:06:09;;;;;;;9.50;5.70;;;;;;;3.84;58.27;96782.47;5048860;28;20703;-76
2021/03/03 03:08:35;;;;;;;9.57;5.73;;;;;;;3.78;58.72;96782.75;5035436;28;20197;-76
2021/03/03 03:11:06;;;;;;;12.50;6.47;;;;;;;3.72;58.74;96789.06;5017526;28;20294;-77
2021/03/03 03:13:33;;;;;;;9.10;5.60;;;;;;;3.67;58.98;96793.56;5033980;28;20199;-76
2021/03/03 03:16:00;;;;;;;11.53;5.80;;;;;;;3.69;58.87;96792.59;5028386;28;20187;-76
2021/03/03 03:18:29;;;;;;;11.47;5.90;;;;;;;3.70;58.45;96799.38;5015548;28;20728;-77
2021/03/03 03:20:56;;;;;;;9.20;5.27;;;;;;;3.77;57.44;96799.09;5015189;28;20199;-77
2021/03/03 03:23:22;;;;;;;10.97;6.27;;;;;;;3.92;56.45;96796.59;5014179;28;20339;-75
2021/03/03 03:25:47;;;;;;;10.37;6.00;;;;;;;4.05;55.40;96799.38;5013881;28;20175;-77
2021/03/03 03:28:13;;;;;;;8.90;5.97;;;;;;;4.01;55.81;96795.31;5015188;28;20612;-77
2021/03/03 03:30:39;;;;;;;10.43;5.83;;;;;;;3.99;56.16;96802.28;5013934;28;20199;-77
2021/03/03 03:33:05;;;;;;;10.23;5.70;;;;;;;3.98;56.51;96798.03;5013888;28;20213;-77
2021/03/03 03:35:31;;;;;;;9.20;5.67;;;;;;;4.01;56.22;96799.63;4997386;28;20218;-77
2021/03/03 03:37:57;;;;;;;13.13;6.23;;;;;;;4.10;55.69;96805.13;5023017;28;20270;-77
2021/03/03 03:40:22;;;;;;;9.97;5.73;;;;;;;4.16;55.37;96804.81;5033627;28;20202;-77
2021/03/03 03:42:49;;;;;;;14.37;6.07;;;;;;;4.22;54.97;96809.63;5033443;28;20204;-74
2021/03/03 03:45:15;;;;;;;10.57;6.13;;;;;;;4.24;54.86;96802.69;5033217;28;20309;-77
2021/03/03 03:47:41;;;;;;;12.20;6.57;;;;;;;4.24;54.66;96805.25;5031775;28;20268;-77
2021/03/03 03:50:07;;;;;;;10.57;6.10;;;;;;;4.26;54.92;96811.16;5033459;28;20198;-77
2021/03/03 03:52:34;;;;;;;11.67;6.23;;;;;;;4.33;54.76;96815.97;5033374;28;20181;-77
2021/03/03 03:54:59;;;;;;;9.07;5.20;;;;;;;4.30;54.66;96819.53;5033185;28;20206;-77
2021/03/03 03:57:24;;;;;;;9.70;5.53;;;;;;;4.30;54.96;96821.28;5020299;28;20190;-77
2021/03/03 03:59:50;;;;;;;11.93;6.00;;;;;;;4.30;54.91;96821.28;5014585;28;20233;-77
2021/03/03 04:02:16;;;;;;;9.00;5.47;;;;;;;4.28;54.95;96820.53;4997168;28;20190;-77
2021/03/03 04:04:41;;;;;;;11.07;6.57;;;;;;;4.34;54.77;96822.78;5013277;28;20170;-77
2021/03/03 04:07:06;;;;;;;10.73;5.57;;;;;;;4.33;54.54;96831.41;5014386;28;20556;-77
2021/03/03 04:09:32;;;;;;;10.17;5.07;;;;;;;4.31;54.96;96822.94;5013330;28;20261;-77
2021/03/03 04:11:58;;;;;;;16.10;7.70;;;;;;;4.28;54.80;96821.34;5013092;28;20190;-77
2021/03/03 04:14:24;;;;;;;14.13;7.40;;;;;;;4.29;54.45;96814.47;5011861;28;20206;-77
2021/03/03 04:16:49;;;;;;;10.70;5.90;;;;;;;4.28;54.35;96817.97;5013263;28;20179;-77
2021/03/03 04:19:15;;;;;;;11.43;6.07;;;;;;;4.24;54.68;96810.41;5014116;28;20218;-77
2021/03/03 04:21:40;;;;;;;11.03;6.47;;;;;;;4.16;54.96;96807.38;5012925;28;20179;-77
2021/03/03 04:24:06;;;;;;;16.30;6.83;;;;;;;4.09;55.69;96808.59;5013049;28;20177;-76
2021/03/03 04:26:31;;;;;;;14.40;8.80;;;;;;;4.03;55.59;96808.91;5012650;28;20179;-77
2021/03/03 04:28:57;;;;;;;13.57;6.53;;;;;;;3.97;56.20;96815.16;5014070;28;20215;-77
2021/03/03 04:31:22;;;;;;;8.30;5.60;;;;;;;3.90;56.32;96813.00;5014293;28;20553;-77
2021/03/03 04:33:47;;;;;;;11.53;5.47;;;;;;;3.81;56.72;96809.16;5012814;28;20290;-76
2021/03/03 04:36:13;;;;;;;10.53;5.70;;;;;;;3.74;57.05;96810.34;5013901;28;20182;-77
2021/03/03 04:38:38;;;;;;;15.77;9.37;;;;;;;3.69;57.65;96808.00;4996649;28;20182;-77
2021/03/03 04:41:03;;;;;;;17.53;9.87;;;;;;;3.64;58.00;96801.44;5015761;28;20210;-76
2021/03/03 04:43:29;;;;;;;13.63;7.57;;;;;;;3.60;57.88;96798.16;5032721;28;20628;-77
2021/03/03 04:45:54;;;;;;;9.70;6.47;;;;;;;3.57;58.21;96802.63;5032229;28;20178;-77
2021/03/03 04:48:19;;;;;;;10.13;5.87;;;;;;;3.51;58.53;96800.34;5013928;28;20190;-77
2021/03/03 04:50:44;;;;;;;10.83;5.77;;;;;;;3.46;58.69;96815.16;5013719;28;20207;-77
2021/03/03 04:53:10;;;;;;;16.87;8.97;;;;;;;3.42;59.33;96806.75;5013683;28;20183;-77
2021/03/03 04:55:35;;;;;;;13.77;6.90;;;;;;;3.37;59.81;96809.56;5012251;28;20186;-77
2021/03/03 04:58:00;;;;;;;10.77;6.33;;;;;;;3.37;59.58;96806.16;5018664;28;20226;-77
2021/03/03 05:00:26;;;;;;;13.00;5.87;;;;;;;3.40;60.01;96811.97;4995967;28;20199;-77
2021/03/03 05:02:51;;;;;;;10.90;5.03;;;;;;;3.37;60.51;96808.72;5012401;28;20191;-77
2021/03/03 05:05:17;;;;;;;10.17;5.10;;;;;;;3.42;60.05;96807.59;5013337;28;20179;-77
2021/03/03 05:07:42;;;;;;;7.93;4.77;;;;;;;3.40;59.88;96806.00;5013802;28;20191;-77
2021/03/03 05:10:08;;;;;;;14.13;6.50;;;;;;;3.32;60.30;96816.63;5033079;28;20198;-77
2021/03/03 05:12:34;;;;;;;11.87;7.13;;;;;;;3.29;60.45;96810.84;5031660;28;20619;-77
2021/03/03 05:14:59;;;;;;;9.87;5.30;;;;;;;3.27;60.54;96817.75;5032759;28;20206;-77
2021/03/03 05:17:24;;;;;;;11.70;6.03;;;;;;;3.24;61.31;96817.91;5033023;28;20205;-77
2021/03/03 05:19:49;;;;;;;14.13;7.77;;;;;;;3.27;60.53;96813.47;5031217;28;20704;-77
2021/03/03 05:22:15;;;;;;;15.00;8.27;;;;;;;3.33;60.39;96809.75;5032681;28;20186;-77
2021/03/03 05:24:41;;;;;;;13.53;7.27;;;;;;;3.27;60.35;96810.91;5026949;28;20179;-77
2021/03/03 05:27:06;;;;;;;14.80;7.87;;;;;;;3.26;60.72;96810.94;5029843;28;20187;-76
2021/03/03 05:29:32;;;;;;;15.40;7.87;;;;;;;3.26;61.23;96805.81;5024140;28;20239;-75
2021/03/03 05:31:58;;;;;;;14.07;6.47;;;;;;;3.26;61.13;96808.38;5011460;28;20236;-75
2021/03/03 05:34:23;;;;;;;17.33;9.00;;;;;;;3.28;61.40;96804.03;5016920;28;20203;-74
2021/03/03 05:36:49;;;;;;;17.20;7.73;;;;;;;3.30;61.38;96797.91;5015141;28;20202;-75
2021/03/03 05:39:14;;;;;;;14.00;7.67;;;;;;;3.28;61.33;96799.72;5016942;28;20233;-76
2021/03/03 05:41:39;;;;;;;12.07;7.43;;;;;;;3.34;60.72;96796.03;5014302;28;20186;-76
2021/03/03 05:44:07;;;;;;;19.47;8.17;;;;;;;3.39;60.61;96797.47;5023640;28;20193;-76
2021/03/03 05:46:34;;;;;;;10.50;6.90;;;;;;;3.44;60.30;96804.13;5026778;28;20256;-76
2021/03/03 05:49:01;;;;;;;14.07;7.23;;;;;;;3.48;59.84;96803.91;5013470;28;20195;-76
2021/03/03 05:51:27;;;;;;;14.87;6.27;;;;;;;3.50;60.13;96796.13;5041959;28;20236;-75
2021/03/03 05:53:53;;;;;;;11.53;7.53;;;;;;;3.56;59.74;96794.09;5046804;28;20293;-75
2021/03/03 05:56:22;;;;;;;15.90;7.07;;;;;;;3.62;59.98;96804.09;5029664;28;20278;-75
2021/03/03 05:58:48;;;;;;;10.00;6.80;;;;;;;3.68;59.71;96798.63;5013566;28;20251;-76
2021/03/03 06:01:14;;;;;;;16.93;6.73;;;;;;;3.83;59.08;96807.34;5024719;28;20210;-76
2021/03/03 06:03:39;;;;;;;15.60;7.77;;;;;;;3.98;58.18;96803.19;5013864;28;20178;-76
2021/03/03 06:06:05;;;;;;;21.77;7.90;;;;;;;4.03;58.13;96808.91;5019804;28;20191;-76
2021/03/03 06:08:31;;;;;;;14.83;7.10;;;;;;;4.09;58.03;96805.19;5029657;28;20561;-76
2021/03/03 06:11:00;;;;;;;18.43;7.30;;;;;;;4.18;58.06;96808.13;5026408;28;20215;-76
2021/03/03 06:13:25;;;;;;;13.63;7.50;;;;;;;4.28;57.78;96798.22;5000744;28;20688;-74
2021/03/03 06:15:51;;;;;;;18.50;8.33;;;;;;;4.36;57.45;96796.06;5012313;28;20210;-74
2021/03/03 06:18:18;;;;;;;24.37;16.43;;;;;;;4.38;57.57;96799.41;5026110;28;20182;-73
2021/03/03 06:20:48;;;;;;;20.37;11.90;;;;;;;4.39;57.69;96805.38;5012249;28;20207;-74
2021/03/03 06:23:14;;;;;;;16.43;9.33;;;;;;;4.43;57.55;96806.88;4997583;28;20193;-74
2021/03/03 06:25:39;;;;;;;16.27;9.23;;;;;;;4.39;57.91;96805.38;5021271;28;20757;-75
2021/03/03 06:28:05;;;;;;;13.63;7.53;;;;;;;4.46;58.15;96806.72;5019615;28;20183;-73
2021/03/03 06:30:30;;;;;;;16.30;8.27;;;;;;;4.51;58.05;96812.47;5012607;28;20273;-73
2021/03/03 06:32:58;;;;;;;17.73;7.53;;;;;;;4.54;58.29;96809.72;5026804;28;20685;-74
2021/03/03 06:35:32;;;;;;;12.73;7.67;;;;;;;4.54;58.36;96814.88;5023410;28;20199;-74
2021/03/03 06:37:57;;;;;;;15.37;7.83;;;;;;;4.54;58.58;96807.97;5012431;28;20294;-74
2021/03/03 06:40:23;;;;;;;12.43;7.43;;;;;;;4.49;58.92;96812.53;5026140;28;20716;-73
2021/03/03 06:42:48;;;;;;;16.97;7.60;;;;;;;4.42;59.21;96810.38;5026706;28;20694;-73
2021/03/03 06:45:30;;;;;;;15.57;8.43;;;;;;;4.40;59.09;96819.88;5015478;28;20321;-74
2021/03/03 06:47:56;;;;;;;17.03;9.30;;;;;;;4.35;59.75;96820.13;5018868;28;20317;-74
2021/03/03 06:50:31;;;;;;;14.00;7.97;;;;;;;4.35;60.21;96820.13;5026714;28;20673;-74
2021/03/03 06:52:56;;;;;;;13.97;7.20;;;;;;;4.34;59.97;96821.06;5028155;28;20182;-74
2021/03/03 06:55:22;;;;;;;13.97;7.30;;;;;;;4.35;60.03;96825.28;5011542;28;20221;-74
2021/03/03 06:57:47;;;;;;;19.53;7.70;;;;;;;4.40;60.41;96828.44;5022344;28;20686;-74
2021/03/03 07:00:13;;;;;;;12.97;8.30;;;;;;;4.48;60.52;96825.47;5008999;28;20214;-73
2021/03/03 07:02:38;;;;;;;17.80;8.97;;;;;;;4.58;60.55;96829.22;5021583;28;20196;-74
2021/03/03 07:05:04;;;;;;;15.93;8.50;;;;;;;4.60;60.89;96824.84;5018964;28;20182;-73
2021/03/03 07:07:29;;;;;;;14.27;8.07;;;;;;;4.65;60.58;96828.00;5031186;28;20190;-73
2021/03/03 07:09:59;;;;;;;17.63;8.40;;;;;;;4.83;61.12;96831.34;5019078;28;20328;-74
2021/03/03 07:12:30;;;;;;;16.63;8.70;;;;;;;4.96;60.89;96831.53;5020193;28;20191;-74
2021/03/03 07:14:59;;;;;;;15.63;8.57;;;;;;;5.05;60.37;96829.31;5045030;28;20206;-74
2021/03/03 07:17:31;;;;;;;16.53;9.10;;;;;;;5.23;59.89;96831.81;5020276;28;20651;-73
2021/03/03 07:20:01;;;;;;;16.70;8.63;;;;;;;5.27;59.93;96826.38;5010153;28;20203;-74
2021/03/03 07:22:32;;;;;;;17.03;9.03;;;;;;;5.39;59.48;96822.31;5010344;28;20176;-73
2021/03/03 07:25:05;;;;;;;21.13;9.60;;;;;;;5.50;59.24;96822.56;5010083;28;20258;-73
2021/03/03 07:27:31;;;;;;;20.50;10.23;;;;;;;5.61;59.19;96827.09;5002203;28;20597;-74
2021/03/03 07:29:59;;;;;;;19.60;9.73;;;;;;;5.72;59.03;96831.66;5029942;28;20209;-74
2021/03/03 07:32:24;;;;;;;17.80;9.60;;;;;;;5.83;58.62;96832.72;5027177;28;20191;-75
2021/03/03 07:34:52;;;;;;;18.77;9.43;;;;;;;5.94;58.55;96839.88;5026766;28;20234;-74
2021/03/03 07:37:19;;;;;;;18.47;9.90;;;;;;;6.03;58.30;96830.78;5044530;28;20222;-74
2021/03/03 07:39:56;;;;;;;15.33;8.73;;;;;;;6.14;58.16;96823.25;5010132;28;20203;-75
2021/03/03 07:42:28;;;;;;;20.83;10.13;;;;;;;6.19;58.19;96824.63;5002515;28;20178;-75
2021/03/03 07:44:58;;;;;;;16.80;9.43;;;;;;;6.30;57.89;96824.00;5025727;28;20205;-74
2021/03/03 07:47:27;;;;;;;18.60;9.43;;;;;;;6.39;57.70;96826.03;5018878;28;20179;-74
2021/03/03 07:49:54;;;;;;;18.63;9.63;;;;;;;6.50;57.82;96823.66;5028474;28;20744;-75
2021/03/03 07:52:20;;;;;;;19.37;10.10;;;;;;;6.61;57.44;96827.34;5016707;28;20185;-75
2021/03/03 07:54:45;;;;;;;21.93;10.83;;;;;;;6.69;57.19;96825.13;5028708;28;20198;-75
2021/03/03 07:57:12;;;;;;;16.67;9.17;;;;;;;6.79;56.97;96826.22;5011344;28;20186;-74
2021/03/03 07:59:41;;;;;;;20.17;9.93;;;;;;;6.86;57.27;96837.00;5021701;28;20198;-74
2021/03/03 08:02:06;;;;;;;22.20;11.60;;;;;;;6.87;57.51;96829.16;5029281;28;20197;-74
2021/03/03 08:04:40;;;;;;;17.03;9.90;;;;;;;7.00;56.86;96832.69;5022328;28;20191;-74
2021/03/03 08:07:20;;;;;;;24.90;10.87;;;;;;;7.10;56.50;96838.09;5029867;28;20622;-74
2021/03/03 08:10:07;;;;;;;22.30;10.53;;;;;;;7.18;56.63;96828.13;5020566;28;20206;-74
2021/03/03 08:12:32;;;;;;;20.93;10.30;;;;;;;7.27;56.29;96826.72;5027742;28;20274;-74
2021/03/03 08:14:58;;;;;;;18.03;9.60;;;;;;;7.39;55.79;96823.34;5011410;28;20210;-74
2021/03/03 08:17:26;;;;;;;20.80;10.47;;;;;;;7.48;55.74;96830.53;5022579;28;20643;-74
2021/03/03 08:19:56;;;;;;;20.73;9.63;;;;;;;7.56;55.68;96828.28;5030436;28;20634;-73
2021/03/03 08:22:49;;;;;;;21.93;9.83;;;;;;;7.72;54.62;96814.38;5020168;28;20205;-74
2021/03/03 08:25:44;;;;;;;16.83;9.20;;;;;;;7.83;54.32;96817.91;5025622;28;20207;-74
2021/03/03 08:28:39;;;;;;;20.53;10.57;;;;;;;7.93;54.05;96813.78;5000999;28;20183;-74
2021/03/03 08:31:21;;;;;;;21.03;10.07;;;;;;;8.04;53.58;96820.03;5009474;28;20225;-74
2021/03/03 08:33:49;;;;;;;15.23;9.37;;;;;;;8.13;53.89;96816.84;5024057;28;20605;-74
2021/03/03 08:36:17;;;;;;;21.77;10.03;;;;;;;8.21;53.24;96819.75;5031770;28;20567;-75
2021/03/03 08:38:43;;;;;;;19.27;9.93;;;;;;;8.28;53.39;96820.16;5016532;28;20274;-76
2021/03/03 08:41:14;;;;;;;19.97;9.90;;;;;;;8.43;52.36;96824.34;5027891;28;20593;-76
2021/03/03 08:43:41;;;;;;;17.53;10.33;;;;;;;8.51;52.09;96822.06;5031373;28;20210;-77
2021/03/03 08:46:19;;;;;;;19.17;10.17;;;;;;;8.63;52.14;96826.41;5019894;28;20190;-77
2021/03/03 08:48:45;;;;;;;17.77;9.33;;;;;;;8.69;51.88;96831.19;5025901;28;20388;-75
2021/03/03 08:51:39;;;;;;;20.17;9.17;;;;;;;8.78;51.83;96827.97;5015432;28;20207;-76
2021/03/03 08:54:07;;;;;;;17.97;8.87;;;;;;;8.89;51.40;96822.03;5014576;28;20215;-76
2021/03/03 08:56:39;;;;;;;17.53;9.83;;;;;;;8.94;51.62;96822.56;5013655;28;20252;-76
2021/03/03 08:59:23;;;;;;;16.33;9.07;;;;;;;9.02;51.38;96819.44;5029730;28;20277;-76
2021/03/03 09:01:52;;;;;;;20.60;9.13;;;;;;;9.13;51.27;96813.50;5017548;28;20183;-76
2021/03/03 09:04:20;;;;;;;19.13;10.30;;;;;;;9.17;51.13;96818.34;5032279;28;20194;-77
2021/03/03 09:06:50;;;;;;;19.97;10.47;;;;;;;9.30;50.57;96824.34;5004379;28;20194;-76
2021/03/03 09:09:16;;;;;;;22.20;10.03;;;;;;;9.43;50.41;96815.69;5030617;28;20202;-76
2021/03/03 09:11:41;;;;;;;19.27;10.00;;;;;;;9.47;50.24;96811.94;5021976;28;21279;-76
2021/03/03 09:14:06;;;;;;;19.83;10.30;;;;;;;9.55;49.50;96815.66;5020057;28;20207;-76
2021/03/03 09:16:32;;;;;;;19.47;9.97;;;;;;;9.66;48.92;96822.66;5012428;28;20655;-76
2021/03/03 09:19:06;;;;;;;19.10;10.03;;;;;;;9.79;48.92;96813.00;5027908;28;20240;-76
2021/03/03 09:21:31;;;;;;;15.53;9.37;;;;;;;9.90;49.03;96814.84;5028678;28;20249;-74
2021/03/03 09:24:08;;;;;;;16.23;9.53;;;;;;;10.04;49.10;96821.59;5023193;28;20186;-76
2021/03/03 09:26:34;;;;;;;18.73;10.00;;;;;;;10.10;49.69;96815.97;5026156;28;20185;-74
2021/03/03 09:28:59;;;;;;;20.67;10.30;;;;;;;10.20;49.33;96812.56;5026125;28;20317;-76
2021/03/03 09:31:29;;;;;;;19.17;9.73;;;;;;;10.30;49.44;96812.75;5028414;28;20528;-75
2021/03/03 09:33:55;;;;;;;17.77;9.93;;;;;;;10.42;49.12;96816.16;5026540;28;20198;-76
2021/03/03 09:36:20;;;;;;;16.13;9.83;;;;;;;10.53;49.16;96810.19;5023398;28;20182;-76
2021/03/03 09:39:00;;;;;;;18.63;9.87;;;;;;;10.63;48.54;96803.34;5019009;28;20269;-76
2021/03/03 09:41:27;;;;;;;18.70;9.50;;;;;;;10.74;48.31;96806.78;5020349;28;20182;-75
2021/03/03 09:44:05;;;;;;;18.90;9.80;;;;;;;10.86;46.63;96806.75;5000811;28;20187;-76
2021/03/03 09:46:59;;;;;;;20.43;11.17;;;;;;;11.02;46.20;96802.84;5021857;28;20179;-76
2021/03/03 09:49:29;;;;;;;20.87;10.77;;;;;;;11.16;46.58;96804.38;5016527;28;20294;-76
2021/03/03 09:51:55;;;;;;;21.60;10.80;;;;;;;11.24;45.20;96803.78;5022439;28;20193;-75
2021/03/03 09:54:27;;;;;;;20.23;10.60;;;;;;;11.42;45.25;96804.94;5021064;28;20695;-75
2021/03/03 09:56:53;;;;;;;14.93;8.67;;;;;;;11.37;47.39;96808.84;5023326;28;20199;-73
2021/03/03 09:59:19;;;;;;;15.87;9.20;;;;;;;11.40;47.89;96804.22;4995143;28;20211;-75
2021/03/03 10:01:44;;;;;;;16.47;9.17;;;;;;;11.59;47.12;96803.59;5019958;28;20232;-75
2021/03/03 10:04:10;;;;;;;16.73;9.20;;;;;;;11.57;47.08;96801.13;5026632;28;20232;-75
2021/03/03 10:06:35;;;;;;;17.00;9.53;;;;;;;11.59;46.82;96804.41;4998191;28;20265;-75
2021/03/03 10:09:01;;;;;;;17.50;9.03;;;;;;;11.61;47.92;96799.06;5025879;28;20201;-75
2021/03/03 10:11:26;;;;;;;15.60;8.80;;;;;;;11.86;47.85;96806.59;5022502;28;20198;-76
2021/03/03 10:14:02;;;;;;;12.77;8.40;;;;;;;11.81;48.47;96807.91;5026568;28;20234;-76
2021/03/03 10:16:28;;;;;;;14.10;9.23;;;;;;;12.05;48.76;96803.31;5023899;28;20193;-75
2021/03/03 10:19:01;;;;;;;17.43;8.67;;;;;;;12.05;47.29;96811.13;5020057;28;20193;-75
2021/03/03 10:21:27;;;;;;;15.73;9.53;;;;;;;12.12;48.38;96801.03;5001548;28;20187;-76
2021/03/03 10:23:52;;;;;;;13.80;9.30;;;;;;;12.24;47.34;96809.59;5011326;28;20854;-75
2021/03/03 10:26:22;;;;;;;17.43;9.40;;;;;;;11.88;46.99;96815.09;5017854;28;20191;-75
2021/03/03 10:28:51;;;;;;;18.00;10.23;;;;;;;11.87;47.43;96815.22;5020582;28;20176;-75
2021/03/03 10:31:21;;;;;;;16.70;8.30;;;;;;;12.26;47.12;96815.50;5021758;28;20230;-76
2021/03/03 10:33:49;;;;;;;18.03;9.23;;;;;;;12.28;46.77;96810.97;5020746;28;20211;-76
2021/03/03 10:36:23;;;;;;;14.37;9.50;;;;;;;12.28;45.76;96805.78;5024096;28;20202;-75
2021/03/03 10:38:56;;;;;;;19.27;9.90;;;;;;;12.26;45.40;96808.50;5020841;28;20232;-75
2021/03/03 10:41:31;;;;;;;20.67;11.60;;;;;;;12.31;45.08;96806.38;5020991;28;20182;-75
2021/03/03 10:43:57;;;;;;;18.77;8.90;;;;;;;12.42;44.24;96815.88;5022735;28;20265;-76
2021/03/03 10:46:24;;;;;;;15.67;9.33;;;;;;;12.33;44.48;96809.66;5021555;28;20275;-75
2021/03/03 10:48:50;;;;;;;15.57;9.50;;;;;;;12.29;44.48;96817.88;5016438;28;20197;-74
2021/03/03 10:51:17;;;;;;;18.07;9.67;;;;;;;12.43;44.15;96805.31;5021197;28;20776;-76
2021/03/03 10:53:49;;;;;;;14.80;9.23;;;;;;;12.48;43.95;96802.34;5022485;28;20206;-75
2021/03/03 10:56:20;;;;;;;17.13;9.27;;;;;;;12.48;43.25;96802.34;5013603;28;20194;-75
2021/03/03 10:58:45;;;;;;;15.70;9.40;;;;;;;12.68;41.93;96808.47;5025149;28;20189;-75
2021/03/03 11:01:11;;;;;;;15.47;9.13;;;;;;;12.61;42.27;96802.13;5017596;28;20285;-75
2021/03/03 11:03:57;;;;;;;14.17;8.57;;;;;;;12.37;42.53;96802.44;5025629;28;20182;-72
2021/03/03 11:06:29;;;;;;;15.23;9.60;;;;;;;12.64;42.20;96807.94;5028223;28;20554;-75
2021/03/03 11:08:54;;;;;;;13.87;9.03;;;;;;;12.72;42.68;96804.66;5017935;28;20187;-75
2021/03/03 11:11:20;;;;;;;13.97;9.43;;;;;;;12.56;42.76;96799.94;5012951;28;20713;-75
2021/03/03 11:13:45;;;;;;;12.17;8.17;;;;;;;12.68;41.52;96801.50;5027053;28;20261;-75
2021/03/03 11:16:10;;;;;;;13.03;8.67;;;;;;;12.71;40.88;96798.63;5022477;28;20187;-76
2021/03/03 11:18:37;;;;;;;15.03;7.90;;;;;;;12.49;40.97;96796.19;5024717;28;20179;-75
2021/03/03 11:21:02;;;;;;;12.83;8.50;;;;;;;12.72;40.04;96786.41;5024584;28;20207;-76
2021/03/03 11:23:28;;;;;;;15.60;7.80;;;;;;;12.65;40.18;96780.91;5044524;28;20646;-77
2021/03/03 11:25:55;;;;;;;14.50;8.60;;;;;;;12.55;40.31;96780.03;5025029;28;20175;-76
2021/03/03 11:28:20;;;;;;;13.73;8.87;;;;;;;12.62;39.95;96781.16;5029604;28;20183;-76
2021/03/03 11:30:45;;;;;;;15.43;8.50;;;;;;;12.71;39.37;96776.94;5023375;28;20266;-75
2021/03/03 11:33:11;;;;;;;16.03;8.83;;;;;;;12.74;39.07;96774.91;5022697;28;20213;-76